sensor_id;sensor_type;location;lat;lon;timestamp;temperature;humidity
19968;DHT22;10145;49.152;9.282;2023-08-12T00:00:16;18.10;99.90
19968;DHT22;10145;49.152;9.282;2023-08-12T00:02:43;18.00;99.90
19968;DHT22;10145;49.152;9.282;2023-08-12T00:05:10;18.00;99.90
19968;DHT22;10145;49.152;9.282;2023-08-12T00:07:36;18.00;99.90
19968;DHT22;10145;49.152;9.282;2023-08-12T00:10:03;17.90;99.90
19968;DHT22;10145;49.152;9.282;2023-08-12T00:12:30;17.80;99.90
19968;DHT22;10145;49.152;9.282;2023-08-12T00:14:56;17.80;99.90
19968;DHT22;10145;49.152;9.282;2023-08-12T00:17:22;17.80;99.90
19968;DHT22;10145;49.152;9.282;2023-08-12T00:19:47;17.80;99.90
19968;DHT22;10145;49.152;9.282;2023-08-12T00:22:13;17.80;99.90
19968;DHT22;10145;49.152;9.282;2023-08-12T00:24:39;17.90;99.90
19968;DHT22;10145;49.152;9.282;2023-08-12T00:27:05;17.90;99.90
19968;DHT22;10145;49.152;9.282;2023-08-12T00:29:32;17.90;99.90
19968;DHT22;10145;49.152;9.282;2023-08-12T00:32:01;17.90;99.90
19968;DHT22;10145;49.152;9.282;2023-08-12T00:34:27;17.80;99.90
19968;DHT22;10145;49.152;9.282;2023-08-12T00:36:52;17.80;99.90
19968;DHT22;10145;49.152;9.282;2023-08-12T00:39:18;17.80;99.90
19968;DHT22;10145;49.152;9.282;2023-08-12T00:41:44;17.80;99.90
19968;DHT22;10145;49.152;9.282;2023-08-12T00:44:09;17.70;99.90
19968;DHT22;10145;49.152;9.282;2023-08-12T00:46:36;17.70;99.90
19968;DHT22;10145;49.152;9.282;2023-08-12T00:49:04;17.70;99.90
19968;DHT22;10145;49.152;9.282;2023-08-12T00:51:29;17.80;99.90
19968;DHT22;10145;49.152;9.282;2023-08-12T00:53:59;17.60;99.90
19968;DHT22;10145;49.152;9.282;2023-08-12T00:56:26;17.60;99.90
19968;DHT22;10145;49.152;9.282;2023-08-12T00:58:53;17.50;99.90
19968;DHT22;10145;49.152;9.282;2023-08-12T01:01:19;17.50;99.90
19968;DHT22;10145;49.152;9.282;2023-08-12T01:03:45;17.40;99.90
19968;DHT22;10145;49.152;9.282;2023-08-12T01:06:12;17.40;99.90
19968;DHT22;10145;49.152;9.282;2023-08-12T01:08:37;17.40;99.90
19968;DHT22;10145;49.152;9.282;2023-08-12T01:11:16;17.40;99.90
19968;DHT22;10145;49.152;9.282;2023-08-12T01:13:49;17.30;99.90
19968;DHT22;10145;49.152;9.282;2023-08-12T01:16:18;17.30;99.90
19968;DHT22;10145;49.152;9.282;2023-08-12T01:18:46;17.30;99.90
19968;DHT22;10145;49.152;9.282;2023-08-12T01:21:15;17.20;99.90
19968;DHT22;10145;49.152;9.282;2023-08-12T01:23:42;17.20;99.90
19968;DHT22;10145;49.152;9.282;2023-08-12T01:26:08;17.20;99.90
19968;DHT22;10145;49.152;9.282;2023-08-12T01:28:33;17.10;99.90
19968;DHT22;10145;49.152;9.282;2023-08-12T01:31:14;17.10;99.90
19968;DHT22;10145;49.152;9.282;2023-08-12T01:36:46;17.00;99.90
19968;DHT22;10145;49.152;9.282;2023-08-12T01:39:17;17.00;99.90
19968;DHT22;10145;49.152;9.282;2023-08-12T01:41:44;17.00;99.90
19968;DHT22;10145;49.152;9.282;2023-08-12T01:44:10;17.00;99.90
19968;DHT22;10145;49.152;9.282;2023-08-12T01:46:36;17.00;99.90
19968;DHT22;10145;49.152;9.282;2023-08-12T01:49:04;17.00;99.90
19968;DHT22;10145;49.152;9.282;2023-08-12T01:51:30;17.00;99.90
19968;DHT22;10145;49.152;9.282;2023-08-12T01:53:55;17.00;99.90
19968;DHT22;10145;49.152;9.282;2023-08-12T01:56:21;17.00;99.90
19968;DHT22;10145;49.152;9.282;2023-08-12T01:58:46;17.00;99.90
19968;DHT22;10145;49.152;9.282;2023-08-12T02:01:12;17.10;99.90
19968;DHT22;10145;49.152;9.282;2023-08-12T02:03:40;17.00;99.90
19968;DHT22;10145;49.152;9.282;2023-08-12T02:06:06;17.10;99.90
19968;DHT22;10145;49.152;9.282;2023-08-12T02:08:32;17.10;99.90
19968;DHT22;10145;49.152;9.282;2023-08-12T02:10:57;17.10;99.90
19968;DHT22;10145;49.152;9.282;2023-08-12T02:13:23;17.10;99.90
19968;DHT22;10145;49.152;9.282;2023-08-12T02:15:51;17.20;99.90
19968;DHT22;10145;49.152;9.282;2023-08-12T02:18:17;17.20;99.90
19968;DHT22;10145;49.152;9.282;2023-08-12T02:20:42;17.20;99.90
19968;DHT22;10145;49.152;9.282;2023-08-12T02:23:08;17.20;99.90
19968;DHT22;10145;49.152;9.282;2023-08-12T02:25:34;17.20;99.90
19968;DHT22;10145;49.152;9.282;2023-08-12T02:27:59;17.30;99.90
19968;DHT22;10145;49.152;9.282;2023-08-12T02:30:28;17.30;99.90
19968;DHT22;10145;49.152;9.282;2023-08-12T02:32:54;17.40;99.90
19968;DHT22;10145;49.152;9.282;2023-08-12T02:35:20;17.40;99.90
19968;DHT22;10145;49.152;9.282;2023-08-12T02:37:48;17.40;99.90
19968;DHT22;10145;49.152;9.282;2023-08-12T02:40:13;17.40;99.90
19968;DHT22;10145;49.152;9.282;2023-08-12T02:42:39;17.50;99.90
19968;DHT22;10145;49.152;9.282;2023-08-12T02:45:05;17.50;99.90
19968;DHT22;10145;49.152;9.282;2023-08-12T02:47:31;17.50;99.90
19968;DHT22;10145;49.152;9.282;2023-08-12T02:49:56;17.50;99.90
19968;DHT22;10145;49.152;9.282;2023-08-12T02:52:22;17.50;99.90
19968;DHT22;10145;49.152;9.282;2023-08-12T02:54:47;17.60;99.90
19968;DHT22;10145;49.152;9.282;2023-08-12T02:57:13;17.60;99.90
19968;DHT22;10145;49.152;9.282;2023-08-12T02:59:38;17.60;99.90
19968;DHT22;10145;49.152;9.282;2023-08-12T03:02:04;17.70;99.90
19968;DHT22;10145;49.152;9.282;2023-08-12T03:04:30;17.70;99.90
19968;DHT22;10145;49.152;9.282;2023-08-12T03:06:55;17.70;99.90
19968;DHT22;10145;49.152;9.282;2023-08-12T03:09:21;17.80;99.90
19968;DHT22;10145;49.152;9.282;2023-08-12T03:11:46;17.80;99.90
19968;DHT22;10145;49.152;9.282;2023-08-12T03:14:12;17.80;99.90
19968;DHT22;10145;49.152;9.282;2023-08-12T03:16:37;17.90;99.90
19968;DHT22;10145;49.152;9.282;2023-08-12T03:19:03;17.90;99.90
19968;DHT22;10145;49.152;9.282;2023-08-12T03:21:29;17.90;99.90
19968;DHT22;10145;49.152;9.282;2023-08-12T03:23:54;17.90;99.90
19968;DHT22;10145;49.152;9.282;2023-08-12T03:26:20;17.90;99.90
19968;DHT22;10145;49.152;9.282;2023-08-12T03:28:45;18.00;99.90
19968;DHT22;10145;49.152;9.282;2023-08-12T03:31:11;18.00;99.90
19968;DHT22;10145;49.152;9.282;2023-08-12T03:33:37;18.00;99.90
19968;DHT22;10145;49.152;9.282;2023-08-12T03:36:02;18.00;99.90
19968;DHT22;10145;49.152;9.282;2023-08-12T03:38:28;18.00;99.90
19968;DHT22;10145;49.152;9.282;2023-08-12T03:40:53;18.00;99.90
19968;DHT22;10145;49.152;9.282;2023-08-12T03:43:19;18.00;99.90
19968;DHT22;10145;49.152;9.282;2023-08-12T03:45:45;18.00;99.90
19968;DHT22;10145;49.152;9.282;2023-08-12T03:48:11;18.00;99.90
19968;DHT22;10145;49.152;9.282;2023-08-12T03:50:37;18.00;99.90
19968;DHT22;10145;49.152;9.282;2023-08-12T03:53:03;18.00;99.90
19968;DHT22;10145;49.152;9.282;2023-08-12T03:55:33;18.00;99.90
19968;DHT22;10145;49.152;9.282;2023-08-12T03:57:59;18.10;99.90
19968;DHT22;10145;49.152;9.282;2023-08-12T04:00:25;18.10;99.90
19968;DHT22;10145;49.152;9.282;2023-08-12T04:02:51;18.10;99.90
19968;DHT22;10145;49.152;9.282;2023-08-12T04:05:17;18.10;99.90
19968;DHT22;10145;49.152;9.282;2023-08-12T04:07:42;18.10;99.90
19968;DHT22;10145;49.152;9.282;2023-08-12T04:10:08;18.10;99.90
19968;DHT22;10145;49.152;9.282;2023-08-12T04:12:34;18.10;99.90
19968;DHT22;10145;49.152;9.282;2023-08-12T04:15:00;18.20;99.90
19968;DHT22;10145;49.152;9.282;2023-08-12T04:17:29;18.20;99.90
19968;DHT22;10145;49.152;9.282;2023-08-12T04:19:54;18.20;99.90
19968;DHT22;10145;49.152;9.282;2023-08-12T04:22:20;18.20;99.90
19968;DHT22;10145;49.152;9.282;2023-08-12T04:24:45;18.20;99.90
19968;DHT22;10145;49.152;9.282;2023-08-12T04:27:11;18.20;99.90
19968;DHT22;10145;49.152;9.282;2023-08-12T04:29:37;18.20;99.90
19968;DHT22;10145;49.152;9.282;2023-08-12T04:32:02;18.20;99.90
19968;DHT22;10145;49.152;9.282;2023-08-12T04:34:28;18.20;99.90
19968;DHT22;10145;49.152;9.282;2023-08-12T04:36:53;18.20;99.90
19968;DHT22;10145;49.152;9.282;2023-08-12T04:39:19;18.20;99.90
19968;DHT22;10145;49.152;9.282;2023-08-12T04:41:44;18.30;99.90
19968;DHT22;10145;49.152;9.282;2023-08-12T04:44:10;18.30;99.90
19968;DHT22;10145;49.152;9.282;2023-08-12T04:46:35;18.30;99.90
19968;DHT22;10145;49.152;9.282;2023-08-12T04:49:01;18.30;99.90
19968;DHT22;10145;49.152;9.282;2023-08-12T04:51:26;18.40;99.90
19968;DHT22;10145;49.152;9.282;2023-08-12T04:53:52;18.40;99.90
19968;DHT22;10145;49.152;9.282;2023-08-12T04:56:17;18.50;99.90
19968;DHT22;10145;49.152;9.282;2023-08-12T04:58:43;18.40;99.90
19968;DHT22;10145;49.152;9.282;2023-08-12T05:01:09;18.50;99.90
19968;DHT22;10145;49.152;9.282;2023-08-12T05:03:34;18.50;99.90
19968;DHT22;10145;49.152;9.282;2023-08-12T05:06:00;18.60;99.90
19968;DHT22;10145;49.152;9.282;2023-08-12T05:08:25;18.60;99.90
19968;DHT22;10145;49.152;9.282;2023-08-12T05:10:51;18.70;99.90
19968;DHT22;10145;49.152;9.282;2023-08-12T05:13:17;18.70;99.90
19968;DHT22;10145;49.152;9.282;2023-08-12T05:15:46;18.80;99.90
19968;DHT22;10145;49.152;9.282;2023-08-12T05:18:13;18.90;99.90
19968;DHT22;10145;49.152;9.282;2023-08-12T05:20:40;19.00;99.90
19968;DHT22;10145;49.152;9.282;2023-08-12T05:23:06;19.00;99.90
19968;DHT22;10145;49.152;9.282;2023-08-12T05:25:31;19.10;99.90
19968;DHT22;10145;49.152;9.282;2023-08-12T05:27:57;19.10;99.90
19968;DHT22;10145;49.152;9.282;2023-08-12T05:30:23;19.10;99.90
19968;DHT22;10145;49.152;9.282;2023-08-12T05:32:48;19.20;99.90
19968;DHT22;10145;49.152;9.282;2023-08-12T05:35:14;19.20;99.90
19968;DHT22;10145;49.152;9.282;2023-08-12T05:37:39;19.30;99.90
19968;DHT22;10145;49.152;9.282;2023-08-12T05:40:05;19.30;99.90
19968;DHT22;10145;49.152;9.282;2023-08-12T05:42:34;19.40;99.90
19968;DHT22;10145;49.152;9.282;2023-08-12T05:44:59;19.50;99.90
19968;DHT22;10145;49.152;9.282;2023-08-12T05:47:25;19.60;99.90
19968;DHT22;10145;49.152;9.282;2023-08-12T05:49:50;19.70;99.90
19968;DHT22;10145;49.152;9.282;2023-08-12T05:52:16;19.70;99.90
19968;DHT22;10145;49.152;9.282;2023-08-12T05:54:41;19.70;99.90
19968;DHT22;10145;49.152;9.282;2023-08-12T05:57:07;19.80;99.90
19968;DHT22;10145;49.152;9.282;2023-08-12T05:59:32;19.90;99.90
19968;DHT22;10145;49.152;9.282;2023-08-12T06:01:58;19.80;99.90
19968;DHT22;10145;49.152;9.282;2023-08-12T06:04:23;19.90;99.90
19968;DHT22;10145;49.152;9.282;2023-08-12T06:06:50;19.80;99.90
19968;DHT22;10145;49.152;9.282;2023-08-12T06:09:15;19.90;99.90
19968;DHT22;10145;49.152;9.282;2023-08-12T06:11:41;20.10;99.90
19968;DHT22;10145;49.152;9.282;2023-08-12T06:14:07;20.10;99.90
19968;DHT22;10145;49.152;9.282;2023-08-12T06:16:32;20.20;99.90
19968;DHT22;10145;49.152;9.282;2023-08-12T06:18:58;20.30;99.90
19968;DHT22;10145;49.152;9.282;2023-08-12T06:21:24;20.40;99.90
19968;DHT22;10145;49.152;9.282;2023-08-12T06:23:49;20.50;99.90
19968;DHT22;10145;49.152;9.282;2023-08-12T06:26:15;20.60;99.90
19968;DHT22;10145;49.152;9.282;2023-08-12T06:28:41;20.70;99.90
19968;DHT22;10145;49.152;9.282;2023-08-12T06:31:06;20.80;99.90
19968;DHT22;10145;49.152;9.282;2023-08-12T06:33:32;20.90;99.90
19968;DHT22;10145;49.152;9.282;2023-08-12T06:35:57;20.90;99.90
19968;DHT22;10145;49.152;9.282;2023-08-12T06:38:23;21.00;99.90
19968;DHT22;10145;49.152;9.282;2023-08-12T06:40:48;21.10;99.90
19968;DHT22;10145;49.152;9.282;2023-08-12T06:43:14;21.20;99.90
19968;DHT22;10145;49.152;9.282;2023-08-12T06:45:39;21.30;99.90
19968;DHT22;10145;49.152;9.282;2023-08-12T06:48:05;21.50;99.90
19968;DHT22;10145;49.152;9.282;2023-08-12T06:50:31;21.60;99.90
19968;DHT22;10145;49.152;9.282;2023-08-12T06:52:58;21.70;99.90
19968;DHT22;10145;49.152;9.282;2023-08-12T06:55:24;21.70;99.90
19968;DHT22;10145;49.152;9.282;2023-08-12T06:57:49;21.70;99.90
19968;DHT22;10145;49.152;9.282;2023-08-12T07:00:15;21.70;99.90
19968;DHT22;10145;49.152;9.282;2023-08-12T07:02:40;21.70;99.90
19968;DHT22;10145;49.152;9.282;2023-08-12T07:05:08;21.60;99.90
19968;DHT22;10145;49.152;9.282;2023-08-12T07:07:33;21.60;99.90
19968;DHT22;10145;49.152;9.282;2023-08-12T07:09:59;21.80;99.90
19968;DHT22;10145;49.152;9.282;2023-08-12T07:12:24;22.00;99.90
19968;DHT22;10145;49.152;9.282;2023-08-12T07:14:50;22.00;99.90
19968;DHT22;10145;49.152;9.282;2023-08-12T07:17:15;22.10;99.90
19968;DHT22;10145;49.152;9.282;2023-08-12T07:19:41;22.50;99.90
19968;DHT22;10145;49.152;9.282;2023-08-12T07:22:06;22.90;99.90
19968;DHT22;10145;49.152;9.282;2023-08-12T07:24:33;23.20;99.90
19968;DHT22;10145;49.152;9.282;2023-08-12T07:26:58;23.30;99.90
19968;DHT22;10145;49.152;9.282;2023-08-12T07:29:24;23.60;99.90
19968;DHT22;10145;49.152;9.282;2023-08-12T07:31:49;23.60;99.90
19968;DHT22;10145;49.152;9.282;2023-08-12T07:34:15;24.00;99.90
19968;DHT22;10145;49.152;9.282;2023-08-12T07:36:40;24.30;99.90
19968;DHT22;10145;49.152;9.282;2023-08-12T07:39:07;24.40;99.90
19968;DHT22;10145;49.152;9.282;2023-08-12T07:41:32;24.70;99.90
19968;DHT22;10145;49.152;9.282;2023-08-12T07:43:58;24.80;99.90
19968;DHT22;10145;49.152;9.282;2023-08-12T07:46:24;24.80;99.90
19968;DHT22;10145;49.152;9.282;2023-08-12T07:48:49;24.80;99.90
19968;DHT22;10145;49.152;9.282;2023-08-12T07:51:15;25.10;99.90
19968;DHT22;10145;49.152;9.282;2023-08-12T07:53:40;25.30;99.90
19968;DHT22;10145;49.152;9.282;2023-08-12T07:56:06;25.30;99.90
19968;DHT22;10145;49.152;9.282;2023-08-12T07:58:31;25.50;99.90
19968;DHT22;10145;49.152;9.282;2023-08-12T08:00:57;25.60;99.90
19968;DHT22;10145;49.152;9.282;2023-08-12T08:03:23;25.80;99.90
19968;DHT22;10145;49.152;9.282;2023-08-12T08:05:48;25.60;99.90
19968;DHT22;10145;49.152;9.282;2023-08-12T08:08:14;25.40;99.90
19968;DHT22;10145;49.152;9.282;2023-08-12T08:10:39;25.20;99.90
19968;DHT22;10145;49.152;9.282;2023-08-12T08:13:05;25.00;99.90
19968;DHT22;10145;49.152;9.282;2023-08-12T08:15:30;24.80;99.90
19968;DHT22;10145;49.152;9.282;2023-08-12T08:17:56;24.60;99.90
19968;DHT22;10145;49.152;9.282;2023-08-12T08:20:22;24.60;99.90
19968;DHT22;10145;49.152;9.282;2023-08-12T08:22:47;24.30;99.90
19968;DHT22;10145;49.152;9.282;2023-08-12T08:25:13;24.30;99.90
19968;DHT22;10145;49.152;9.282;2023-08-12T08:27:39;24.20;99.90
19968;DHT22;10145;49.152;9.282;2023-08-12T08:30:08;24.20;99.90
19968;DHT22;10145;49.152;9.282;2023-08-12T08:32:34;24.20;99.90
19968;DHT22;10145;49.152;9.282;2023-08-12T08:34:59;24.20;99.90
19968;DHT22;10145;49.152;9.282;2023-08-12T08:37:25;24.40;99.90
19968;DHT22;10145;49.152;9.282;2023-08-12T08:39:51;24.50;99.90
19968;DHT22;10145;49.152;9.282;2023-08-12T08:42:19;24.60;99.90
19968;DHT22;10145;49.152;9.282;2023-08-12T08:44:45;24.70;99.90
19968;DHT22;10145;49.152;9.282;2023-08-12T08:47:14;24.70;99.90
19968;DHT22;10145;49.152;9.282;2023-08-12T08:49:42;24.90;99.90
19968;DHT22;10145;49.152;9.282;2023-08-12T08:52:08;25.10;99.90
19968;DHT22;10145;49.152;9.282;2023-08-12T08:54:34;25.30;99.90
19968;DHT22;10145;49.152;9.282;2023-08-12T08:56:59;25.30;99.90
19968;DHT22;10145;49.152;9.282;2023-08-12T08:59:25;25.60;99.90
19968;DHT22;10145;49.152;9.282;2023-08-12T09:01:51;25.70;99.90
19968;DHT22;10145;49.152;9.282;2023-08-12T09:04:20;25.80;99.90
19968;DHT22;10145;49.152;9.282;2023-08-12T09:06:47;25.70;99.90
19968;DHT22;10145;49.152;9.282;2023-08-12T09:09:16;25.90;99.90
19968;DHT22;10145;49.152;9.282;2023-08-12T09:11:43;25.80;99.90
19968;DHT22;10145;49.152;9.282;2023-08-12T09:14:11;26.00;99.90
19968;DHT22;10145;49.152;9.282;2023-08-12T09:16:36;26.00;99.90
19968;DHT22;10145;49.152;9.282;2023-08-12T09:19:03;26.10;99.90
19968;DHT22;10145;49.152;9.282;2023-08-12T09:21:28;26.40;99.90
19968;DHT22;10145;49.152;9.282;2023-08-12T09:23:54;26.60;99.90
19968;DHT22;10145;49.152;9.282;2023-08-12T09:26:21;26.60;99.90
19968;DHT22;10145;49.152;9.282;2023-08-12T09:28:47;26.90;99.90
19968;DHT22;10145;49.152;9.282;2023-08-12T09:31:24;27.10;99.90
19968;DHT22;10145;49.152;9.282;2023-08-12T09:33:50;27.20;99.90
19968;DHT22;10145;49.152;9.282;2023-08-12T09:36:16;27.20;99.90
19968;DHT22;10145;49.152;9.282;2023-08-12T09:38:42;27.40;99.90
19968;DHT22;10145;49.152;9.282;2023-08-12T09:41:08;27.40;99.90
19968;DHT22;10145;49.152;9.282;2023-08-12T09:43:33;27.60;99.90
19968;DHT22;10145;49.152;9.282;2023-08-12T09:45:59;27.80;99.90
19968;DHT22;10145;49.152;9.282;2023-08-12T09:48:25;27.90;99.90
19968;DHT22;10145;49.152;9.282;2023-08-12T09:50:52;27.70;99.90
19968;DHT22;10145;49.152;9.282;2023-08-12T09:53:18;27.60;99.90
19968;DHT22;10145;49.152;9.282;2023-08-12T09:55:47;27.60;99.90
19968;DHT22;10145;49.152;9.282;2023-08-12T09:58:17;27.60;99.90
19968;DHT22;10145;49.152;9.282;2023-08-12T10:00:43;27.80;99.90
19968;DHT22;10145;49.152;9.282;2023-08-12T10:03:10;27.90;99.90
19968;DHT22;10145;49.152;9.282;2023-08-12T10:05:37;27.90;99.90
19968;DHT22;10145;49.152;9.282;2023-08-12T10:08:03;27.90;99.90
19968;DHT22;10145;49.152;9.282;2023-08-12T10:10:32;28.20;99.90
19968;DHT22;10145;49.152;9.282;2023-08-12T10:12:58;28.30;99.90
19968;DHT22;10145;49.152;9.282;2023-08-12T10:15:24;28.30;99.90
19968;DHT22;10145;49.152;9.282;2023-08-12T10:17:51;29.10;99.90
19968;DHT22;10145;49.152;9.282;2023-08-12T10:20:21;29.30;99.90
19968;DHT22;10145;49.152;9.282;2023-08-12T10:22:47;30.00;99.90
19968;DHT22;10145;49.152;9.282;2023-08-12T10:25:14;30.20;99.90
19968;DHT22;10145;49.152;9.282;2023-08-12T10:27:41;30.40;99.90
19968;DHT22;10145;49.152;9.282;2023-08-12T10:30:07;30.50;99.90
19968;DHT22;10145;49.152;9.282;2023-08-12T10:32:33;30.50;99.90
19968;DHT22;10145;49.152;9.282;2023-08-12T10:35:00;30.50;99.90
19968;DHT22;10145;49.152;9.282;2023-08-12T10:37:26;30.30;99.90
19968;DHT22;10145;49.152;9.282;2023-08-12T10:39:55;30.30;99.90
19968;DHT22;10145;49.152;9.282;2023-08-12T10:45:05;29.10;99.90
19968;DHT22;10145;49.152;9.282;2023-08-12T10:47:37;29.50;99.90
19968;DHT22;10145;49.152;9.282;2023-08-12T10:50:03;29.60;99.90
19968;DHT22;10145;49.152;9.282;2023-08-12T10:52:31;29.80;99.90
19968;DHT22;10145;49.152;9.282;2023-08-12T10:55:18;29.60;99.90
19968;DHT22;10145;49.152;9.282;2023-08-12T10:57:44;29.70;99.90
19968;DHT22;10145;49.152;9.282;2023-08-12T11:00:23;30.00;99.90
19968;DHT22;10145;49.152;9.282;2023-08-12T11:02:50;30.00;99.90
19968;DHT22;10145;49.152;9.282;2023-08-12T11:05:16;30.20;99.90
19968;DHT22;10145;49.152;9.282;2023-08-12T11:07:48;30.30;99.90
19968;DHT22;10145;49.152;9.282;2023-08-12T11:10:25;30.10;99.90
19968;DHT22;10145;49.152;9.282;2023-08-12T11:12:57;30.10;99.90
19968;DHT22;10145;49.152;9.282;2023-08-12T11:18:13;30.50;99.90
19968;DHT22;10145;49.152;9.282;2023-08-12T11:20:39;30.60;99.20
19968;DHT22;10145;49.152;9.282;2023-08-12T11:23:07;30.50;97.50
19968;DHT22;10145;49.152;9.282;2023-08-12T11:25:34;30.30;98.90
19968;DHT22;10145;49.152;9.282;2023-08-12T11:28:00;30.10;98.00
19968;DHT22;10145;49.152;9.282;2023-08-12T11:30:27;30.20;97.50
19968;DHT22;10145;49.152;9.282;2023-08-12T11:32:54;30.90;97.10
19968;DHT22;10145;49.152;9.282;2023-08-12T11:35:21;31.60;96.80
19968;DHT22;10145;49.152;9.282;2023-08-12T11:37:48;31.90;96.00
19968;DHT22;10145;49.152;9.282;2023-08-12T11:40:16;32.00;96.30
19968;DHT22;10145;49.152;9.282;2023-08-12T11:42:44;32.60;94.70
19968;DHT22;10145;49.152;9.282;2023-08-12T11:45:10;33.10;93.00
19968;DHT22;10145;49.152;9.282;2023-08-12T11:47:39;33.40;91.90
19968;DHT22;10145;49.152;9.282;2023-08-12T11:50:05;33.80;91.90
19968;DHT22;10145;49.152;9.282;2023-08-12T11:52:31;33.40;92.40
19968;DHT22;10145;49.152;9.282;2023-08-12T11:54:57;33.10;91.60
19968;DHT22;10145;49.152;9.282;2023-08-12T11:57:23;32.80;92.30
19968;DHT22;10145;49.152;9.282;2023-08-12T11:59:50;32.30;93.10
19968;DHT22;10145;49.152;9.282;2023-08-12T12:02:15;31.40;94.30
19968;DHT22;10145;49.152;9.282;2023-08-12T12:04:42;30.40;96.50
19968;DHT22;10145;49.152;9.282;2023-08-12T12:07:22;29.70;97.30
19968;DHT22;10145;49.152;9.282;2023-08-12T12:09:54;29.10;97.10
19968;DHT22;10145;49.152;9.282;2023-08-12T12:12:24;29.00;98.00
19968;DHT22;10145;49.152;9.282;2023-08-12T12:14:52;28.60;98.40
19968;DHT22;10145;49.152;9.282;2023-08-12T12:17:23;28.40;98.70
19968;DHT22;10145;49.152;9.282;2023-08-12T12:19:56;28.20;98.30
19968;DHT22;10145;49.152;9.282;2023-08-12T12:22:27;27.90;98.90
19968;DHT22;10145;49.152;9.282;2023-08-12T12:24:53;27.80;99.50
19968;DHT22;10145;49.152;9.282;2023-08-12T12:27:19;27.60;99.90
19968;DHT22;10145;49.152;9.282;2023-08-12T12:29:45;27.50;99.90
19968;DHT22;10145;49.152;9.282;2023-08-12T12:32:11;26.90;99.90
19968;DHT22;10145;49.152;9.282;2023-08-12T12:34:36;25.70;99.90
19968;DHT22;10145;49.152;9.282;2023-08-12T12:37:02;24.90;99.90
19968;DHT22;10145;49.152;9.282;2023-08-12T12:39:27;24.30;99.90
19968;DHT22;10145;49.152;9.282;2023-08-12T12:41:53;24.30;99.90
19968;DHT22;10145;49.152;9.282;2023-08-12T12:44:19;24.20;99.90
19968;DHT22;10145;49.152;9.282;2023-08-12T12:46:44;24.60;99.90
19968;DHT22;10145;49.152;9.282;2023-08-12T12:49:10;25.00;99.90
19968;DHT22;10145;49.152;9.282;2023-08-12T12:51:36;25.40;99.90
19968;DHT22;10145;49.152;9.282;2023-08-12T12:54:01;26.00;99.90
19968;DHT22;10145;49.152;9.282;2023-08-12T12:56:27;26.20;99.90
19968;DHT22;10145;49.152;9.282;2023-08-12T12:58:53;26.10;99.90
19968;DHT22;10145;49.152;9.282;2023-08-12T13:01:18;25.70;99.90
19968;DHT22;10145;49.152;9.282;2023-08-12T13:03:44;25.40;99.90
19968;DHT22;10145;49.152;9.282;2023-08-12T13:06:09;25.10;99.90
19968;DHT22;10145;49.152;9.282;2023-08-12T13:08:35;24.90;99.90
19968;DHT22;10145;49.152;9.282;2023-08-12T13:11:01;25.00;99.90
19968;DHT22;10145;49.152;9.282;2023-08-12T13:13:26;25.10;99.90
19968;DHT22;10145;49.152;9.282;2023-08-12T13:15:52;25.30;99.90
19968;DHT22;10145;49.152;9.282;2023-08-12T13:18:17;25.50;99.90
19968;DHT22;10145;49.152;9.282;2023-08-12T13:20:43;26.20;99.90
19968;DHT22;10145;49.152;9.282;2023-08-12T13:23:09;27.30;99.90
19968;DHT22;10145;49.152;9.282;2023-08-12T13:25:34;28.90;99.90
19968;DHT22;10145;49.152;9.282;2023-08-12T13:28:01;29.60;99.90
19968;DHT22;10145;49.152;9.282;2023-08-12T13:30:27;29.90;99.90
19968;DHT22;10145;49.152;9.282;2023-08-12T13:32:53;30.00;99.90
19968;DHT22;10145;49.152;9.282;2023-08-12T13:35:19;30.00;99.90
19968;DHT22;10145;49.152;9.282;2023-08-12T13:37:45;29.40;99.90
19968;DHT22;10145;49.152;9.282;2023-08-12T13:40:10;28.80;99.90
19968;DHT22;10145;49.152;9.282;2023-08-12T13:42:37;27.70;99.90
19968;DHT22;10145;49.152;9.282;2023-08-12T13:45:03;27.40;99.90
19968;DHT22;10145;49.152;9.282;2023-08-12T13:47:29;27.20;99.90
19968;DHT22;10145;49.152;9.282;2023-08-12T13:49:54;26.80;99.90
19968;DHT22;10145;49.152;9.282;2023-08-12T13:52:20;26.30;99.90
19968;DHT22;10145;49.152;9.282;2023-08-12T13:54:45;26.60;99.90
19968;DHT22;10145;49.152;9.282;2023-08-12T13:57:11;27.70;99.90
19968;DHT22;10145;49.152;9.282;2023-08-12T13:59:37;29.10;99.90
19968;DHT22;10145;49.152;9.282;2023-08-12T14:02:02;30.20;99.90
19968;DHT22;10145;49.152;9.282;2023-08-12T14:04:28;30.60;99.90
19968;DHT22;10145;49.152;9.282;2023-08-12T14:06:54;31.70;99.90
19968;DHT22;10145;49.152;9.282;2023-08-12T14:09:19;33.30;99.90
19968;DHT22;10145;49.152;9.282;2023-08-12T14:11:45;34.00;99.90
19968;DHT22;10145;49.152;9.282;2023-08-12T14:14:11;34.90;99.90
19968;DHT22;10145;49.152;9.282;2023-08-12T14:16:36;35.90;95.80
19968;DHT22;10145;49.152;9.282;2023-08-12T14:19:02;36.30;92.70
19968;DHT22;10145;49.152;9.282;2023-08-12T14:21:28;35.60;93.30
19968;DHT22;10145;49.152;9.282;2023-08-12T14:23:53;36.40;90.30
19968;DHT22;10145;49.152;9.282;2023-08-12T14:26:19;37.10;86.50
19968;DHT22;10145;49.152;9.282;2023-08-12T14:28:44;37.30;85.60
19968;DHT22;10145;49.152;9.282;2023-08-12T14:31:10;37.30;89.40
19968;DHT22;10145;49.152;9.282;2023-08-12T14:33:35;37.20;85.40
19968;DHT22;10145;49.152;9.282;2023-08-12T14:36:03;36.30;86.40
19968;DHT22;10145;49.152;9.282;2023-08-12T14:38:28;37.40;84.70
19968;DHT22;10145;49.152;9.282;2023-08-12T14:40:54;37.80;81.80
19968;DHT22;10145;49.152;9.282;2023-08-12T14:43:20;37.70;81.40
19968;DHT22;10145;49.152;9.282;2023-08-12T14:45:45;37.80;78.70
19968;DHT22;10145;49.152;9.282;2023-08-12T14:48:11;37.30;79.80
19968;DHT22;10145;49.152;9.282;2023-08-12T14:50:38;37.40;75.60
19968;DHT22;10145;49.152;9.282;2023-08-12T14:53:04;37.80;77.00
19968;DHT22;10145;49.152;9.282;2023-08-12T14:55:29;37.90;75.20
19968;DHT22;10145;49.152;9.282;2023-08-12T14:57:55;38.40;74.90
19968;DHT22;10145;49.152;9.282;2023-08-12T15:00:21;38.20;75.90
19968;DHT22;10145;49.152;9.282;2023-08-12T15:02:46;36.90;77.20
19968;DHT22;10145;49.152;9.282;2023-08-12T15:05:13;35.30;81.90
19968;DHT22;10145;49.152;9.282;2023-08-12T15:07:39;33.80;84.60
19968;DHT22;10145;49.152;9.282;2023-08-12T15:10:05;32.20;89.40
19968;DHT22;10145;49.152;9.282;2023-08-12T15:12:31;31.20;91.40
19968;DHT22;10145;49.152;9.282;2023-08-12T15:14:56;30.50;92.70
19968;DHT22;10145;49.152;9.282;2023-08-12T15:17:22;29.90;94.70
19968;DHT22;10145;49.152;9.282;2023-08-12T15:19:48;29.80;94.80
19968;DHT22;10145;49.152;9.282;2023-08-12T15:22:13;29.40;95.30
19968;DHT22;10145;49.152;9.282;2023-08-12T15:24:39;29.10;95.60
19968;DHT22;10145;49.152;9.282;2023-08-12T15:27:05;28.60;96.80
19968;DHT22;10145;49.152;9.282;2023-08-12T15:29:30;28.20;98.30
19968;DHT22;10145;49.152;9.282;2023-08-12T15:31:56;27.90;99.70